Shenandoah National Park, VA

6:31 AM EST on November 27, 2014 (GMT -0500)
Lord Willing Dr. | Change Station
CLOSE
Current Station
Personal Weather Station
Location: Culpeper, VA
Elevation: 499 ft
Nearby Weather Stations
Active Advisory: Special Statement Active Notice: Record Report

Elev 499 ft 38.54 °N, 77.94 °W | Updated 6 seconds ago

Fog
Fog
33.3 °F
Feels Like 33 °F
N
0.0
Wind Variable Wind from NNW
Gusts 0.0 mph

Today
High -- | Low -- °F
--% Chance of Precip.
Yesterday
High -- | Low -- °F
Precip. -- in
7:06 AM 4:52 PM
Waxing Crescent, 28% visible
Pressure 30.03 in
Visibility 3.0 miles
Clouds Scattered Clouds 200 ft
Scattered Clouds 2700 ft
Mostly Cloudy 3500 ft
Windchill 33 °F
Dew Point 32 °F
Humidity 96%
Rainfall 0.00 in
Snow Depth Not available.
UV 0 out of 12
Pollen .10 out of 12
Air Quality Not available.
Flu Activity Not available.
METAR KCJR 271115Z AUTO 36004KT 3SM BR SCT002 SCT027 BKN035 01/01 A3003 RMK AO2

More Conditions Fewer Conditions

Pressure 30.03 in
Visibility 3.0 miles
Clouds Scattered Clouds 200 ft
Scattered Clouds 2700 ft
Mostly Cloudy 3500 ft
Windchill 33 °F
Dew Point 32 °F
Humidity 96%
Rainfall 0.00 in
Snow Depth Not available.
UV 0 out of 12
Pollen .10 out of 12
Air Quality Not available.
Flu Activity Not available.
METAR KCJR 271115Z AUTO 36004KT 3SM BR SCT002 SCT027 BKN035 01/01 A3003 RMK AO2

More Conditions Fewer Conditions

10-Day Weather Forecast

Almanac

Astronomy

Nov. 27, 2014 Rise Set
Actual Time
Civil Twilight
Nautical Twilight
Astronomical Twilight
Moon
Length of Visible Light
Length of Day
Tomorrow will be .
, % of the Moon is Illuminated

Today's Extremes

State Highs State Lows

Community

WunderPhotos

Upload Photos

1,773,970 photos uploaded!

WunderBlogs® & News

Nearby

Air Quality

  Air Quality AQ Index Pollutant
Not available.

Snow Depth

Station Depth Elevation

Earthquake Activity

City Distance Mag. Time & Date
Minimum magnitude displayed is 2.5.

Coastal Water Temperatures

Place Temperature

Nearby Weather Stations